Scroll down
FLIGHT INFORMATION
United Airlines

UAL1768

At Arrival Gate

KLAX
 KVCV
DATE: 2019-01-19
GATE:  -
GATE DEPARTURE: 17:23
TAKEOFF: 17:46
DATE: 2019-01-19
GATE:  -
LANDING: 18:11
GATE ARRIVAL: 18:16
FLIGHT DATA
Crew: DOUGLAS MORLAN
Speed: 327 kts Altitude: 15000 ft
Stage Length: 64 nm
Route: LAX VALEY LANGE KIMMO SLAPP BOGET PMD
Block Time:  -  Flight Time:  -
Fuel Used: 11015 LB
TRACK DATA
50000 FT1000 KT
AIRCRAFT INFO AND CUMULATIVE STATS
Aircraft Type: B744
Registration: N127UA
SELCAL: DPMQ MSN/LN: 28813 / 1221
Operator: UNITED AIRLINES
Total Flights: 2 
Total Block Time: 1.9 Total Flight Time: 1.3
Total Fuel Used: 34003 LB
DATALINK LOG | Newest first | Current as of: 2020-10-25 08:41:27
LABEL SEQUENCE CONTENT Dn/Up
QD164818:16 29.8▼ Dn
QC113318:11▼ Dn
2U5332KVCV 191745Z 00000KT 10SM SKC A3041▲ Up
2S5141KVCV▼ Dn
QB464817:46▼ Dn
QA230617:23 41.1▼ Dn
2U5637KLAX 191653Z 06005KT 10SM FEW200 17/08 A3027 RMK AO2 SLP249 T01670078 $▲ Up
2S5505KLAX▼ Dn
2U5435KVCV 191645Z 00000KT 10SM SKC A3041▲ Up
2S5243KLAX KVCV▼ Dn
Q04929[LINK ACK]▲ Up
Q04826[LINK TEST]▼ Dn


AIRCRAFT HISTORY
FLIGHT DATE FLIGHT NO. ORIGIN DESTINATION ROUTE BLOCK TIME FLIGHT TIME FUEL USED (LB) PILOT
2019-01-19UAL1768KLAX KVCV LAX VALEY LANGE KIMMO SLAPP BOGET PMD0.90.411015Douglas Morlan
2018-08-16UAL493KSFO KLAX 1.20.922989Michael Roth